sensor_id;sensor_type;location;lat;lon;timestamp;P1;durP1;ratioP1;P2;durP2;ratioP2
7477;SDS011;3780;42.424;25.636;2023-12-29T00:00:28;10.32;;;7.35;;
7477;SDS011;3780;42.424;25.636;2023-12-29T00:02:54;12.43;;;7.25;;
7477;SDS011;3780;42.424;25.636;2023-12-29T00:05:19;11.65;;;7.57;;
7477;SDS011;3780;42.424;25.636;2023-12-29T00:07:44;15.32;;;8.73;;
7477;SDS011;3780;42.424;25.636;2023-12-29T00:10:10;13.85;;;8.25;;
7477;SDS011;3780;42.424;25.636;2023-12-29T00:12:35;12.35;;;7.65;;
7477;SDS011;3780;42.424;25.636;2023-12-29T00:15:00;12.25;;;7.85;;
7477;SDS011;3780;42.424;25.636;2023-12-29T00:17:26;12.55;;;7.43;;
7477;SDS011;3780;42.424;25.636;2023-12-29T00:19:51;10.80;;;6.90;;
7477;SDS011;3780;42.424;25.636;2023-12-29T00:22:18;15.25;;;6.78;;
7477;SDS011;3780;42.424;25.636;2023-12-29T00:24:44;12.70;;;7.53;;
7477;SDS011;3780;42.424;25.636;2023-12-29T00:27:09;9.23;;;6.70;;
7477;SDS011;3780;42.424;25.636;2023-12-29T00:29:34;12.60;;;7.72;;
7477;SDS011;3780;42.424;25.636;2023-12-29T00:31:59;11.55;;;7.57;;
7477;SDS011;3780;42.424;25.636;2023-12-29T00:34:25;11.40;;;7.28;;
7477;SDS011;3780;42.424;25.636;2023-12-29T00:36:51;12.15;;;7.25;;
7477;SDS011;3780;42.424;25.636;2023-12-29T00:39:16;13.77;;;6.95;;
7477;SDS011;3780;42.424;25.636;2023-12-29T00:41:41;10.10;;;6.85;;
7477;SDS011;3780;42.424;25.636;2023-12-29T00:44:07;12.82;;;7.47;;
7477;SDS011;3780;42.424;25.636;2023-12-29T00:46:33;12.38;;;7.60;;
7477;SDS011;3780;42.424;25.636;2023-12-29T00:48:58;11.55;;;7.57;;
7477;SDS011;3780;42.424;25.636;2023-12-29T00:51:23;15.25;;;9.30;;
7477;SDS011;3780;42.424;25.636;2023-12-29T00:53:48;14.18;;;8.98;;
7477;SDS011;3780;42.424;25.636;2023-12-29T00:56:14;15.40;;;9.98;;
7477;SDS011;3780;42.424;25.636;2023-12-29T00:58:39;13.25;;;9.00;;
7477;SDS011;3780;42.424;25.636;2023-12-29T01:01:07;12.85;;;8.75;;
7477;SDS011;3780;42.424;25.636;2023-12-29T01:03:34;24.48;;;13.27;;
7477;SDS011;3780;42.424;25.636;2023-12-29T01:05:59;20.30;;;11.45;;
7477;SDS011;3780;42.424;25.636;2023-12-29T01:08:24;18.73;;;12.40;;
7477;SDS011;3780;42.424;25.636;2023-12-29T01:10:50;16.38;;;8.75;;
7477;SDS011;3780;42.424;25.636;2023-12-29T01:13:15;14.65;;;8.63;;
7477;SDS011;3780;42.424;25.636;2023-12-29T01:15:40;16.02;;;9.10;;
7477;SDS011;3780;42.424;25.636;2023-12-29T01:18:09;13.98;;;8.43;;
7477;SDS011;3780;42.424;25.636;2023-12-29T01:20:36;14.00;;;8.77;;
7477;SDS011;3780;42.424;25.636;2023-12-29T01:23:01;12.82;;;8.88;;
7477;SDS011;3780;42.424;25.636;2023-12-29T01:25:26;17.90;;;8.98;;
7477;SDS011;3780;42.424;25.636;2023-12-29T01:27:52;13.15;;;8.38;;
7477;SDS011;3780;42.424;25.636;2023-12-29T01:30:17;16.90;;;8.52;;
7477;SDS011;3780;42.424;25.636;2023-12-29T01:32:42;15.43;;;10.13;;
7477;SDS011;3780;42.424;25.636;2023-12-29T01:35:07;11.00;;;7.53;;
7477;SDS011;3780;42.424;25.636;2023-12-29T01:37:33;13.65;;;8.65;;
7477;SDS011;3780;42.424;25.636;2023-12-29T01:39:58;12.07;;;8.40;;
7477;SDS011;3780;42.424;25.636;2023-12-29T01:42:24;11.85;;;7.63;;
7477;SDS011;3780;42.424;25.636;2023-12-29T01:44:49;14.23;;;8.00;;
7477;SDS011;3780;42.424;25.636;2023-12-29T01:47:19;11.57;;;7.97;;
7477;SDS011;3780;42.424;25.636;2023-12-29T01:49:45;12.60;;;7.75;;
7477;SDS011;3780;42.424;25.636;2023-12-29T01:52:10;14.05;;;8.13;;
7477;SDS011;3780;42.424;25.636;2023-12-29T01:54:36;11.48;;;7.85;;
7477;SDS011;3780;42.424;25.636;2023-12-29T01:57:03;13.27;;;8.20;;
7477;SDS011;3780;42.424;25.636;2023-12-29T01:59:29;11.77;;;8.68;;
7477;SDS011;3780;42.424;25.636;2023-12-29T02:01:56;16.48;;;9.32;;
7477;SDS011;3780;42.424;25.636;2023-12-29T02:04:23;10.88;;;8.00;;
7477;SDS011;3780;42.424;25.636;2023-12-29T02:06:48;10.80;;;7.30;;
7477;SDS011;3780;42.424;25.636;2023-12-29T02:09:14;15.57;;;7.85;;
7477;SDS011;3780;42.424;25.636;2023-12-29T02:11:41;9.98;;;6.90;;
7477;SDS011;3780;42.424;25.636;2023-12-29T02:14:06;13.32;;;8.25;;
7477;SDS011;3780;42.424;25.636;2023-12-29T02:16:38;10.25;;;7.38;;
7477;SDS011;3780;42.424;25.636;2023-12-29T02:19:07;16.63;;;8.18;;
7477;SDS011;3780;42.424;25.636;2023-12-29T02:21:33;21.05;;;13.52;;
7477;SDS011;3780;42.424;25.636;2023-12-29T02:23:59;23.60;;;15.00;;
7477;SDS011;3780;42.424;25.636;2023-12-29T02:26:24;19.52;;;13.20;;
7477;SDS011;3780;42.424;25.636;2023-12-29T02:28:53;25.35;;;16.80;;
7477;SDS011;3780;42.424;25.636;2023-12-29T02:31:23;25.15;;;16.02;;
7477;SDS011;3780;42.424;25.636;2023-12-29T02:33:49;26.33;;;18.00;;
7477;SDS011;3780;42.424;25.636;2023-12-29T02:36:15;24.30;;;18.77;;
7477;SDS011;3780;42.424;25.636;2023-12-29T02:38:41;27.90;;;19.30;;
7477;SDS011;3780;42.424;25.636;2023-12-29T02:41:06;30.50;;;18.27;;
7477;SDS011;3780;42.424;25.636;2023-12-29T02:43:32;25.02;;;17.23;;
7477;SDS011;3780;42.424;25.636;2023-12-29T02:45:57;20.63;;;14.10;;
7477;SDS011;3780;42.424;25.636;2023-12-29T02:48:23;21.52;;;14.30;;
7477;SDS011;3780;42.424;25.636;2023-12-29T02:50:48;20.83;;;14.73;;
7477;SDS011;3780;42.424;25.636;2023-12-29T02:53:13;22.63;;;13.73;;
7477;SDS011;3780;42.424;25.636;2023-12-29T02:55:39;19.13;;;13.48;;
7477;SDS011;3780;42.424;25.636;2023-12-29T02:58:04;23.00;;;13.13;;
7477;SDS011;3780;42.424;25.636;2023-12-29T03:00:29;18.13;;;12.20;;
7477;SDS011;3780;42.424;25.636;2023-12-29T03:02:54;19.33;;;13.50;;
7477;SDS011;3780;42.424;25.636;2023-12-29T03:05:20;17.40;;;12.57;;
7477;SDS011;3780;42.424;25.636;2023-12-29T03:07:45;19.83;;;12.18;;
7477;SDS011;3780;42.424;25.636;2023-12-29T03:10:11;16.77;;;10.85;;
7477;SDS011;3780;42.424;25.636;2023-12-29T03:12:36;17.85;;;11.18;;
7477;SDS011;3780;42.424;25.636;2023-12-29T03:15:01;19.55;;;10.25;;
7477;SDS011;3780;42.424;25.636;2023-12-29T03:17:26;24.20;;;12.20;;
7477;SDS011;3780;42.424;25.636;2023-12-29T03:19:52;20.80;;;12.93;;
7477;SDS011;3780;42.424;25.636;2023-12-29T03:22:18;15.93;;;11.70;;
7477;SDS011;3780;42.424;25.636;2023-12-29T03:24:43;16.65;;;11.25;;
7477;SDS011;3780;42.424;25.636;2023-12-29T03:27:09;15.57;;;11.55;;
7477;SDS011;3780;42.424;25.636;2023-12-29T03:29:34;19.48;;;12.82;;
7477;SDS011;3780;42.424;25.636;2023-12-29T03:31:59;20.25;;;13.20;;
7477;SDS011;3780;42.424;25.636;2023-12-29T03:34:25;22.13;;;15.82;;
7477;SDS011;3780;42.424;25.636;2023-12-29T03:36:50;20.30;;;14.10;;
7477;SDS011;3780;42.424;25.636;2023-12-29T03:39:15;18.75;;;13.52;;
7477;SDS011;3780;42.424;25.636;2023-12-29T03:41:41;24.40;;;16.90;;
7477;SDS011;3780;42.424;25.636;2023-12-29T03:44:06;31.55;;;18.83;;
7477;SDS011;3780;42.424;25.636;2023-12-29T03:46:31;33.13;;;19.08;;
7477;SDS011;3780;42.424;25.636;2023-12-29T03:48:57;28.35;;;17.00;;
7477;SDS011;3780;42.424;25.636;2023-12-29T03:51:23;29.10;;;18.80;;
7477;SDS011;3780;42.424;25.636;2023-12-29T03:53:48;24.63;;;18.60;;
7477;SDS011;3780;42.424;25.636;2023-12-29T03:56:17;35.20;;;24.77;;
7477;SDS011;3780;42.424;25.636;2023-12-29T03:58:46;38.90;;;25.58;;
7477;SDS011;3780;42.424;25.636;2023-12-29T04:01:11;41.45;;;28.15;;
7477;SDS011;3780;42.424;25.636;2023-12-29T04:03:37;31.40;;;19.17;;
7477;SDS011;3780;42.424;25.636;2023-12-29T04:06:03;27.13;;;16.80;;
7477;SDS011;3780;42.424;25.636;2023-12-29T04:08:28;26.63;;;17.95;;
7477;SDS011;3780;42.424;25.636;2023-12-29T04:10:54;23.05;;;18.25;;
7477;SDS011;3780;42.424;25.636;2023-12-29T04:13:19;26.83;;;17.70;;
7477;SDS011;3780;42.424;25.636;2023-12-29T04:15:44;26.05;;;17.58;;
7477;SDS011;3780;42.424;25.636;2023-12-29T04:18:09;22.48;;;17.35;;
7477;SDS011;3780;42.424;25.636;2023-12-29T04:20:35;26.90;;;18.08;;
7477;SDS011;3780;42.424;25.636;2023-12-29T04:23:00;24.27;;;17.02;;
7477;SDS011;3780;42.424;25.636;2023-12-29T04:25:25;25.20;;;17.92;;
7477;SDS011;3780;42.424;25.636;2023-12-29T04:27:50;27.27;;;16.48;;
7477;SDS011;3780;42.424;25.636;2023-12-29T04:30:16;26.95;;;16.65;;
7477;SDS011;3780;42.424;25.636;2023-12-29T04:32:41;27.33;;;15.98;;
7477;SDS011;3780;42.424;25.636;2023-12-29T04:35:07;24.13;;;15.38;;
7477;SDS011;3780;42.424;25.636;2023-12-29T04:37:32;23.15;;;16.25;;
7477;SDS011;3780;42.424;25.636;2023-12-29T04:39:57;22.77;;;15.90;;
7477;SDS011;3780;42.424;25.636;2023-12-29T04:42:23;30.85;;;16.10;;
7477;SDS011;3780;42.424;25.636;2023-12-29T04:44:48;22.50;;;15.40;;
7477;SDS011;3780;42.424;25.636;2023-12-29T04:47:13;22.88;;;16.38;;
7477;SDS011;3780;42.424;25.636;2023-12-29T04:49:39;25.08;;;17.70;;
7477;SDS011;3780;42.424;25.636;2023-12-29T04:52:04;26.02;;;17.52;;
7477;SDS011;3780;42.424;25.636;2023-12-29T04:54:29;26.77;;;16.92;;
7477;SDS011;3780;42.424;25.636;2023-12-29T04:56:54;29.27;;;17.23;;
7477;SDS011;3780;42.424;25.636;2023-12-29T04:59:20;22.42;;;14.93;;
7477;SDS011;3780;42.424;25.636;2023-12-29T05:01:45;13.95;;;10.48;;
7477;SDS011;3780;42.424;25.636;2023-12-29T05:04:10;17.13;;;12.57;;
7477;SDS011;3780;42.424;25.636;2023-12-29T05:06:36;25.42;;;15.00;;
7477;SDS011;3780;42.424;25.636;2023-12-29T05:09:01;16.75;;;12.98;;
7477;SDS011;3780;42.424;25.636;2023-12-29T05:11:26;23.05;;;14.70;;
7477;SDS011;3780;42.424;25.636;2023-12-29T05:13:52;17.77;;;13.15;;
7477;SDS011;3780;42.424;25.636;2023-12-29T05:16:17;19.55;;;13.07;;
7477;SDS011;3780;42.424;25.636;2023-12-29T05:18:43;36.95;;;21.75;;
7477;SDS011;3780;42.424;25.636;2023-12-29T05:21:17;40.28;;;25.13;;
7477;SDS011;3780;42.424;25.636;2023-12-29T05:23:43;32.33;;;21.00;;
7477;SDS011;3780;42.424;25.636;2023-12-29T05:26:09;31.48;;;22.88;;
7477;SDS011;3780;42.424;25.636;2023-12-29T05:28:34;37.05;;;21.50;;
7477;SDS011;3780;42.424;25.636;2023-12-29T05:30:59;33.92;;;18.23;;
7477;SDS011;3780;42.424;25.636;2023-12-29T05:33:28;37.95;;;21.30;;
7477;SDS011;3780;42.424;25.636;2023-12-29T05:35:53;32.35;;;19.98;;
7477;SDS011;3780;42.424;25.636;2023-12-29T05:38:19;36.47;;;23.15;;
7477;SDS011;3780;42.424;25.636;2023-12-29T05:40:44;28.50;;;19.10;;
7477;SDS011;3780;42.424;25.636;2023-12-29T05:43:09;32.75;;;18.27;;
7477;SDS011;3780;42.424;25.636;2023-12-29T05:45:34;36.55;;;18.08;;
7477;SDS011;3780;42.424;25.636;2023-12-29T05:48:00;69.90;;;43.65;;
7477;SDS011;3780;42.424;25.636;2023-12-29T05:50:25;63.22;;;42.78;;
7477;SDS011;3780;42.424;25.636;2023-12-29T05:52:50;43.83;;;25.90;;
7477;SDS011;3780;42.424;25.636;2023-12-29T05:55:17;29.65;;;18.13;;
7477;SDS011;3780;42.424;25.636;2023-12-29T05:57:42;39.10;;;25.23;;
7477;SDS011;3780;42.424;25.636;2023-12-29T06:00:08;46.75;;;21.20;;
7477;SDS011;3780;42.424;25.636;2023-12-29T06:02:39;79.43;;;46.25;;
7477;SDS011;3780;42.424;25.636;2023-12-29T06:05:04;45.72;;;31.77;;
7477;SDS011;3780;42.424;25.636;2023-12-29T06:07:30;40.78;;;24.55;;
7477;SDS011;3780;42.424;25.636;2023-12-29T06:09:55;65.50;;;40.67;;
7477;SDS011;3780;42.424;25.636;2023-12-29T06:12:20;64.03;;;42.30;;
7477;SDS011;3780;42.424;25.636;2023-12-29T06:14:45;50.97;;;26.25;;
7477;SDS011;3780;42.424;25.636;2023-12-29T06:17:11;39.90;;;26.88;;
7477;SDS011;3780;42.424;25.636;2023-12-29T06:19:36;45.08;;;28.02;;
7477;SDS011;3780;42.424;25.636;2023-12-29T06:22:01;40.17;;;27.00;;
7477;SDS011;3780;42.424;25.636;2023-12-29T06:24:27;43.45;;;28.00;;
7477;SDS011;3780;42.424;25.636;2023-12-29T06:26:52;40.70;;;27.65;;
7477;SDS011;3780;42.424;25.636;2023-12-29T06:29:18;44.00;;;27.35;;
7477;SDS011;3780;42.424;25.636;2023-12-29T06:31:43;46.60;;;33.35;;
7477;SDS011;3780;42.424;25.636;2023-12-29T06:34:08;59.05;;;33.63;;
7477;SDS011;3780;42.424;25.636;2023-12-29T06:36:34;48.88;;;33.78;;
7477;SDS011;3780;42.424;25.636;2023-12-29T06:38:59;41.85;;;31.70;;
7477;SDS011;3780;42.424;25.636;2023-12-29T06:41:25;53.40;;;37.28;;
7477;SDS011;3780;42.424;25.636;2023-12-29T06:43:50;61.58;;;38.42;;
7477;SDS011;3780;42.424;25.636;2023-12-29T06:46:15;61.83;;;39.35;;
7477;SDS011;3780;42.424;25.636;2023-12-29T06:48:41;61.92;;;40.40;;
7477;SDS011;3780;42.424;25.636;2023-12-29T06:51:06;52.85;;;38.38;;
7477;SDS011;3780;42.424;25.636;2023-12-29T06:53:32;57.90;;;38.60;;
7477;SDS011;3780;42.424;25.636;2023-12-29T06:55:57;53.03;;;40.50;;
7477;SDS011;3780;42.424;25.636;2023-12-29T06:58:22;56.22;;;41.70;;
7477;SDS011;3780;42.424;25.636;2023-12-29T07:00:48;66.32;;;44.65;;
7477;SDS011;3780;42.424;25.636;2023-12-29T07:03:13;58.47;;;43.38;;
7477;SDS011;3780;42.424;25.636;2023-12-29T07:05:39;68.80;;;44.90;;
7477;SDS011;3780;42.424;25.636;2023-12-29T07:08:05;69.60;;;52.25;;
7477;SDS011;3780;42.424;25.636;2023-12-29T07:10:30;71.18;;;50.22;;
7477;SDS011;3780;42.424;25.636;2023-12-29T07:12:55;59.33;;;42.45;;
7477;SDS011;3780;42.424;25.636;2023-12-29T07:15:20;58.75;;;43.25;;
7477;SDS011;3780;42.424;25.636;2023-12-29T07:17:47;62.45;;;43.65;;
7477;SDS011;3780;42.424;25.636;2023-12-29T07:20:13;60.70;;;44.97;;
7477;SDS011;3780;42.424;25.636;2023-12-29T07:22:38;64.22;;;44.67;;
7477;SDS011;3780;42.424;25.636;2023-12-29T07:25:03;65.63;;;46.92;;
7477;SDS011;3780;42.424;25.636;2023-12-29T07:27:29;68.38;;;51.55;;
7477;SDS011;3780;42.424;25.636;2023-12-29T07:29:54;80.57;;;57.75;;
7477;SDS011;3780;42.424;25.636;2023-12-29T07:32:19;72.68;;;54.60;;
7477;SDS011;3780;42.424;25.636;2023-12-29T07:34:45;63.10;;;49.85;;
7477;SDS011;3780;42.424;25.636;2023-12-29T07:37:10;66.03;;;51.10;;
7477;SDS011;3780;42.424;25.636;2023-12-29T07:39:36;71.13;;;51.10;;
7477;SDS011;3780;42.424;25.636;2023-12-29T07:42:01;67.82;;;47.72;;
7477;SDS011;3780;42.424;25.636;2023-12-29T07:44:27;60.92;;;45.20;;
7477;SDS011;3780;42.424;25.636;2023-12-29T07:46:52;60.40;;;46.97;;
7477;SDS011;3780;42.424;25.636;2023-12-29T07:49:17;64.15;;;47.35;;
7477;SDS011;3780;42.424;25.636;2023-12-29T07:51:45;51.88;;;45.30;;
7477;SDS011;3780;42.424;25.636;2023-12-29T07:54:10;58.15;;;46.00;;
7477;SDS011;3780;42.424;25.636;2023-12-29T07:56:36;50.33;;;37.95;;
7477;SDS011;3780;42.424;25.636;2023-12-29T07:59:02;51.80;;;37.72;;
7477;SDS011;3780;42.424;25.636;2023-12-29T08:01:28;55.13;;;34.72;;
7477;SDS011;3780;42.424;25.636;2023-12-29T08:03:53;47.25;;;33.40;;
7477;SDS011;3780;42.424;25.636;2023-12-29T08:06:18;51.53;;;33.92;;
7477;SDS011;3780;42.424;25.636;2023-12-29T08:08:43;47.83;;;36.38;;
7477;SDS011;3780;42.424;25.636;2023-12-29T08:11:15;56.53;;;36.55;;
7477;SDS011;3780;42.424;25.636;2023-12-29T08:13:43;50.70;;;37.85;;
7477;SDS011;3780;42.424;25.636;2023-12-29T08:16:09;49.85;;;34.90;;
7477;SDS011;3780;42.424;25.636;2023-12-29T08:18:35;44.22;;;27.80;;
7477;SDS011;3780;42.424;25.636;2023-12-29T08:21:00;38.63;;;26.88;;
7477;SDS011;3780;42.424;25.636;2023-12-29T08:23:26;30.45;;;24.05;;
7477;SDS011;3780;42.424;25.636;2023-12-29T08:25:52;36.63;;;25.08;;
7477;SDS011;3780;42.424;25.636;2023-12-29T08:28:17;34.60;;;25.30;;
7477;SDS011;3780;42.424;25.636;2023-12-29T08:30:42;36.85;;;26.10;;
7477;SDS011;3780;42.424;25.636;2023-12-29T08:33:10;46.25;;;28.13;;
7477;SDS011;3780;42.424;25.636;2023-12-29T08:35:37;32.30;;;23.35;;
7477;SDS011;3780;42.424;25.636;2023-12-29T08:38:03;30.10;;;21.27;;
7477;SDS011;3780;42.424;25.636;2023-12-29T08:40:28;28.30;;;21.10;;
7477;SDS011;3780;42.424;25.636;2023-12-29T08:42:53;29.85;;;22.77;;
7477;SDS011;3780;42.424;25.636;2023-12-29T08:45:19;31.77;;;21.55;;
7477;SDS011;3780;42.424;25.636;2023-12-29T08:47:45;31.25;;;21.30;;
7477;SDS011;3780;42.424;25.636;2023-12-29T08:50:10;26.88;;;19.48;;
7477;SDS011;3780;42.424;25.636;2023-12-29T08:52:35;30.95;;;18.70;;
7477;SDS011;3780;42.424;25.636;2023-12-29T08:55:01;32.70;;;19.13;;
7477;SDS011;3780;42.424;25.636;2023-12-29T08:57:26;24.95;;;18.48;;
7477;SDS011;3780;42.424;25.636;2023-12-29T08:59:51;23.25;;;17.20;;
7477;SDS011;3780;42.424;25.636;2023-12-29T09:02:17;25.50;;;17.60;;
7477;SDS011;3780;42.424;25.636;2023-12-29T09:04:42;22.35;;;15.98;;
7477;SDS011;3780;42.424;25.636;2023-12-29T09:07:07;23.27;;;14.98;;
7477;SDS011;3780;42.424;25.636;2023-12-29T09:09:33;18.73;;;13.63;;
7477;SDS011;3780;42.424;25.636;2023-12-29T09:11:58;18.25;;;13.15;;
7477;SDS011;3780;42.424;25.636;2023-12-29T09:14:23;18.70;;;14.10;;
7477;SDS011;3780;42.424;25.636;2023-12-29T09:16:48;30.80;;;14.18;;
7477;SDS011;3780;42.424;25.636;2023-12-29T09:19:14;22.88;;;14.40;;
7477;SDS011;3780;42.424;25.636;2023-12-29T09:21:39;29.55;;;20.45;;
7477;SDS011;3780;42.424;25.636;2023-12-29T09:24:04;17.73;;;12.82;;
7477;SDS011;3780;42.424;25.636;2023-12-29T09:26:30;22.85;;;13.80;;
7477;SDS011;3780;42.424;25.636;2023-12-29T09:28:55;21.40;;;14.32;;
7477;SDS011;3780;42.424;25.636;2023-12-29T09:31:20;18.88;;;14.35;;
7477;SDS011;3780;42.424;25.636;2023-12-29T09:33:46;17.67;;;12.30;;
7477;SDS011;3780;42.424;25.636;2023-12-29T09:36:11;18.58;;;13.80;;
7477;SDS011;3780;42.424;25.636;2023-12-29T09:38:36;22.30;;;13.95;;
7477;SDS011;3780;42.424;25.636;2023-12-29T09:41:06;17.52;;;13.45;;
7477;SDS011;3780;42.424;25.636;2023-12-29T09:43:33;33.28;;;20.27;;
7477;SDS011;3780;42.424;25.636;2023-12-29T09:45:59;18.90;;;12.65;;
7477;SDS011;3780;42.424;25.636;2023-12-29T09:48:26;23.58;;;12.90;;
7477;SDS011;3780;42.424;25.636;2023-12-29T09:50:51;24.20;;;13.00;;
7477;SDS011;3780;42.424;25.636;2023-12-29T09:53:18;17.70;;;12.57;;
7477;SDS011;3780;42.424;25.636;2023-12-29T09:55:45;22.02;;;11.43;;
7477;SDS011;3780;42.424;25.636;2023-12-29T09:58:11;19.98;;;13.60;;
7477;SDS011;3780;42.424;25.636;2023-12-29T10:00:37;19.40;;;12.77;;
7477;SDS011;3780;42.424;25.636;2023-12-29T10:03:03;24.02;;;13.32;;
7477;SDS011;3780;42.424;25.636;2023-12-29T10:05:29;19.17;;;12.20;;
7477;SDS011;3780;42.424;25.636;2023-12-29T10:07:54;15.75;;;12.15;;
7477;SDS011;3780;42.424;25.636;2023-12-29T10:10:22;19.98;;;12.02;;
7477;SDS011;3780;42.424;25.636;2023-12-29T10:12:49;18.23;;;14.00;;
7477;SDS011;3780;42.424;25.636;2023-12-29T10:15:34;21.17;;;17.13;;
7477;SDS011;3780;42.424;25.636;2023-12-29T10:23:43;21.00;;;13.77;;
7477;SDS011;3780;42.424;25.636;2023-12-29T10:26:12;19.92;;;14.32;;
7477;SDS011;3780;42.424;25.636;2023-12-29T10:28:38;25.73;;;12.55;;
7477;SDS011;3780;42.424;25.636;2023-12-29T10:31:04;21.83;;;11.10;;
7477;SDS011;3780;42.424;25.636;2023-12-29T10:33:29;18.80;;;11.45;;
7477;SDS011;3780;42.424;25.636;2023-12-29T10:35:57;17.85;;;12.23;;
7477;SDS011;3780;42.424;25.636;2023-12-29T10:38:23;14.95;;;10.20;;
7477;SDS011;3780;42.424;25.636;2023-12-29T10:40:49;16.27;;;10.63;;
7477;SDS011;3780;42.424;25.636;2023-12-29T10:43:14;18.85;;;10.60;;
7477;SDS011;3780;42.424;25.636;2023-12-29T10:45:46;20.27;;;10.00;;
7477;SDS011;3780;42.424;25.636;2023-12-29T10:48:12;15.68;;;9.32;;
7477;SDS011;3780;42.424;25.636;2023-12-29T10:50:46;17.50;;;10.13;;
7477;SDS011;3780;42.424;25.636;2023-12-29T10:53:12;17.48;;;9.93;;
7477;SDS011;3780;42.424;25.636;2023-12-29T10:55:37;13.80;;;10.18;;
7477;SDS011;3780;42.424;25.636;2023-12-29T10:58:03;15.68;;;10.30;;
7477;SDS011;3780;42.424;25.636;2023-12-29T11:00:31;15.75;;;8.57;;
7477;SDS011;3780;42.424;25.636;2023-12-29T11:03:00;13.20;;;9.13;;
7477;SDS011;3780;42.424;25.636;2023-12-29T11:05:26;14.88;;;9.20;;
7477;SDS011;3780;42.424;25.636;2023-12-29T11:07:52;14.27;;;9.10;;
7477;SDS011;3780;42.424;25.636;2023-12-29T11:10:19;14.02;;;8.80;;
7477;SDS011;3780;42.424;25.636;2023-12-29T11:12:45;14.10;;;8.68;;
7477;SDS011;3780;42.424;25.636;2023-12-29T11:15:10;24.48;;;10.93;;
7477;SDS011;3780;42.424;25.636;2023-12-29T11:17:38;15.65;;;8.93;;
7477;SDS011;3780;42.424;25.636;2023-12-29T11:20:04;16.42;;;10.20;;
7477;SDS011;3780;42.424;25.636;2023-12-29T11:22:30;17.65;;;11.07;;
7477;SDS011;3780;42.424;25.636;2023-12-29T11:24:59;24.52;;;12.18;;
7477;SDS011;3780;42.424;25.636;2023-12-29T11:27:28;16.70;;;10.70;;
7477;SDS011;3780;42.424;25.636;2023-12-29T11:29:55;14.55;;;9.85;;
7477;SDS011;3780;42.424;25.636;2023-12-29T11:32:22;18.38;;;10.10;;
7477;SDS011;3780;42.424;25.636;2023-12-29T11:34:52;19.83;;;10.50;;
7477;SDS011;3780;42.424;25.636;2023-12-29T11:40:04;15.73;;;10.45;;
7477;SDS011;3780;42.424;25.636;2023-12-29T11:42:37;25.75;;;10.43;;
7477;SDS011;3780;42.424;25.636;2023-12-29T11:45:23;24.40;;;10.80;;
7477;SDS011;3780;42.424;25.636;2023-12-29T11:47:48;21.02;;;12.05;;
7477;SDS011;3780;42.424;25.636;2023-12-29T11:50:22;28.15;;;13.13;;
7477;SDS011;3780;42.424;25.636;2023-12-29T11:52:52;23.25;;;11.98;;
7477;SDS011;3780;42.424;25.636;2023-12-29T11:55:18;21.48;;;11.30;;
7477;SDS011;3780;42.424;25.636;2023-12-29T11:57:44;21.58;;;11.27;;
7477;SDS011;3780;42.424;25.636;2023-12-29T12:00:10;25.75;;;13.43;;
7477;SDS011;3780;42.424;25.636;2023-12-29T12:02:35;22.90;;;13.35;;
7477;SDS011;3780;42.424;25.636;2023-12-29T12:05:01;25.55;;;14.02;;
7477;SDS011;3780;42.424;25.636;2023-12-29T12:09:52;20.17;;;11.80;;
7477;SDS011;3780;42.424;25.636;2023-12-29T12:12:41;19.30;;;10.98;;
7477;SDS011;3780;42.424;25.636;2023-12-29T12:17:50;18.83;;;11.95;;
7477;SDS011;3780;42.424;25.636;2023-12-29T12:20:16;19.17;;;12.52;;
7477;SDS011;3780;42.424;25.636;2023-12-29T12:22:42;21.33;;;12.20;;
7477;SDS011;3780;42.424;25.636;2023-12-29T12:25:09;27.02;;;13.85;;
7477;SDS011;3780;42.424;25.636;2023-12-29T12:27:37;24.17;;;12.82;;
7477;SDS011;3780;42.424;25.636;2023-12-29T12:30:02;19.55;;;12.55;;
7477;SDS011;3780;42.424;25.636;2023-12-29T12:32:28;19.27;;;13.55;;
7477;SDS011;3780;42.424;25.636;2023-12-29T12:34:54;27.90;;;14.55;;
7477;SDS011;3780;42.424;25.636;2023-12-29T12:37:20;18.45;;;12.77;;
7477;SDS011;3780;42.424;25.636;2023-12-29T12:39:45;23.85;;;15.57;;
7477;SDS011;3780;42.424;25.636;2023-12-29T12:42:11;23.10;;;14.20;;
7477;SDS011;3780;42.424;25.636;2023-12-29T12:44:40;23.45;;;13.32;;
7477;SDS011;3780;42.424;25.636;2023-12-29T12:47:06;23.20;;;14.73;;
7477;SDS011;3780;42.424;25.636;2023-12-29T12:49:32;22.95;;;14.60;;
7477;SDS011;3780;42.424;25.636;2023-12-29T12:51:58;23.42;;;14.55;;
7477;SDS011;3780;42.424;25.636;2023-12-29T12:54:23;29.33;;;15.88;;
7477;SDS011;3780;42.424;25.636;2023-12-29T12:56:49;30.55;;;16.02;;
7477;SDS011;3780;42.424;25.636;2023-12-29T12:59:14;29.45;;;15.55;;
7477;SDS011;3780;42.424;25.636;2023-12-29T13:01:41;24.02;;;15.93;;
7477;SDS011;3780;42.424;25.636;2023-12-29T13:04:07;32.55;;;18.17;;
7477;SDS011;3780;42.424;25.636;2023-12-29T13:06:33;26.85;;;15.82;;
7477;SDS011;3780;42.424;25.636;2023-12-29T13:08:59;27.30;;;15.13;;
7477;SDS011;3780;42.424;25.636;2023-12-29T13:11:25;27.92;;;15.68;;
7477;SDS011;3780;42.424;25.636;2023-12-29T13:13:51;28.45;;;16.77;;
7477;SDS011;3780;42.424;25.636;2023-12-29T13:16:31;24.67;;;16.38;;
7477;SDS011;3780;42.424;25.636;2023-12-29T13:18:57;24.08;;;15.80;;
7477;SDS011;3780;42.424;25.636;2023-12-29T13:21:22;38.75;;;16.38;;
7477;SDS011;3780;42.424;25.636;2023-12-29T13:23:47;21.95;;;15.13;;
7477;SDS011;3780;42.424;25.636;2023-12-29T13:26:13;29.20;;;16.30;;
7477;SDS011;3780;42.424;25.636;2023-12-29T13:28:39;32.33;;;16.45;;
7477;SDS011;3780;42.424;25.636;2023-12-29T13:31:04;24.33;;;14.20;;
7477;SDS011;3780;42.424;25.636;2023-12-29T13:36:06;25.50;;;16.35;;
7477;SDS011;3780;42.424;25.636;2023-12-29T13:38:34;22.52;;;13.93;;
7477;SDS011;3780;42.424;25.636;2023-12-29T13:41:03;21.88;;;14.35;;
7477;SDS011;3780;42.424;25.636;2023-12-29T13:43:30;22.85;;;13.77;;
7477;SDS011;3780;42.424;25.636;2023-12-29T13:45:57;26.80;;;15.77;;
7477;SDS011;3780;42.424;25.636;2023-12-29T13:48:23;24.10;;;13.50;;
7477;SDS011;3780;42.424;25.636;2023-12-29T13:50:48;22.40;;;14.82;;
7477;SDS011;3780;42.424;25.636;2023-12-29T13:53:17;17.50;;;13.88;;
7477;SDS011;3780;42.424;25.636;2023-12-29T13:55:43;21.55;;;13.55;;
7477;SDS011;3780;42.424;25.636;2023-12-29T13:58:09;21.95;;;13.40;;
7477;SDS011;3780;42.424;25.636;2023-12-29T14:00:35;18.42;;;12.80;;
7477;SDS011;3780;42.424;25.636;2023-12-29T14:03:02;21.20;;;13.20;;
7477;SDS011;3780;42.424;25.636;2023-12-29T14:05:43;22.73;;;13.15;;
7477;SDS011;3780;42.424;25.636;2023-12-29T14:08:33;19.63;;;12.50;;
7477;SDS011;3780;42.424;25.636;2023-12-29T14:10:59;19.23;;;13.38;;
7477;SDS011;3780;42.424;25.636;2023-12-29T14:13:24;21.13;;;13.23;;
7477;SDS011;3780;42.424;25.636;2023-12-29T14:15:50;18.95;;;12.65;;
7477;SDS011;3780;42.424;25.636;2023-12-29T14:20:43;20.30;;;12.52;;
7477;SDS011;3780;42.424;25.636;2023-12-29T14:23:08;20.70;;;13.40;;
7477;SDS011;3780;42.424;25.636;2023-12-29T14:25:35;23.98;;;13.43;;
7477;SDS011;3780;42.424;25.636;2023-12-29T14:28:03;23.95;;;13.55;;
7477;SDS011;3780;42.424;25.636;2023-12-29T14:30:29;19.58;;;12.65;;
7477;SDS011;3780;42.424;25.636;2023-12-29T14:32:58;20.55;;;13.20;;
7477;SDS011;3780;42.424;25.636;2023-12-29T14:35:24;18.95;;;13.60;;
7477;SDS011;3780;42.424;25.636;2023-12-29T14:37:49;28.60;;;16.42;;
7477;SDS011;3780;42.424;25.636;2023-12-29T14:40:15;25.92;;;15.27;;
7477;SDS011;3780;42.424;25.636;2023-12-29T14:42:40;21.83;;;14.45;;
7477;SDS011;3780;42.424;25.636;2023-12-29T14:45:06;22.23;;;13.85;;
7477;SDS011;3780;42.424;25.636;2023-12-29T14:47:31;22.75;;;14.77;;